Flight Track Log - Related Links

Times and Time Zones

All times are in EDT time to prevent confusion due to time zone crossing. See the DAL1117 flight status page for this flight to view local times or setup timezone preferences in your user account.

Time Position Orientation Groundspeed Altitude Reporting Facility
EDT Latitude Longitude Course Direction KTS MPH feet Rate Location/Type
Sun 09:47:13 PM 42.2314 -83.3342 275° West 154 177 1,400  Level Cleveland Center
Sun 09:47:55 PM 42.2631 -83.3158 23° Northeast 198 228 2,300 1,670 Climbing Cleveland Center
Sun 09:49:00 PM 42.3126 -83.7963 285° West  Level FlightAware Approximate
Sun 09:49:08 PM 42.3450 -83.2831 16° North 277 319 4,600  Level Cleveland Center
Sun 09:50:00 PM 42.3547 -83.9432 292° West  Level FlightAware Approximate
Sun 09:50:09 PM 42.4153 -83.3114 343° North 284 327 7,600  Level Cleveland Center
Sun 09:51:00 PM 42.3985 -84.0894 292° West  Level FlightAware Approximate
Sun 09:51:33 PM 42.4267 -83.4442 277° West 288 331 9,900  Level Cleveland Center
Sun 09:52:00 PM 42.4207 -84.2423 275° West  Level FlightAware Approximate
Sun 09:52:33 PM 42.4278 -83.5650 271° West 308 354 10,600  Level Cleveland Center
Sun 09:53:33 PM 42.4283 -83.7003 270° West 338 389 12,700 2,300 Climbing Cleveland Center
Sun 09:54:33 PM 42.4267 -83.8378 269° West 359 413 15,200 2,300 Climbing Cleveland Center
Sun 09:55:33 PM 42.4286 -83.9900 271° West 367 422 17,300 2,000 Climbing Cleveland Center
Sun 09:56:33 PM 42.4267 -84.1164 269° West 372 428 19,200 1,800 Climbing Cleveland Center
Sun 09:57:33 PM 42.4261 -84.2683 270° West 386 444 20,900 1,550 Climbing Cleveland Center
Sun 09:58:33 PM 42.4314 -84.4264 273° West 406 467 22,300 1,450 Climbing Cleveland Center
Sun 09:59:33 PM 42.4364 -84.5897 272° West 427 491 23,800 1,860 Climbing Cleveland Center
Sun 10:00:13 PM 42.4403 -84.6894 273° West 432 497 25,400 1,765 Climbing Chicago Center
Sun 10:01:15 PM 42.4442 -84.8461 272° West 420 483 26,800 1,220 Climbing Chicago Center
Sun 10:02:16 PM 42.4481 -85.0075 272° West 426 490 27,900 934 Climbing Chicago Center
Sun 10:03:17 PM 42.4517 -85.1725 272° West 438 504 28,700 1,317 Climbing Chicago Center
Sun 10:04:19 PM 42.4544 -85.3731 271° West 444 511 30,600 1,415 Climbing Chicago Center
Sun 10:05:20 PM 42.4575 -85.5358 272° West 435 501 31,600 1,024 Climbing Chicago Center
Sun 10:06:22 PM 42.4600 -85.6972 271° West 430 495 32,700 1,073 Climbing Chicago Center
Sun 10:07:23 PM 42.4628 -85.8578 271° West 427 491 33,800 639 Climbing Chicago Center
Sun 10:08:24 PM 42.4642 -86.0197 271° West 427 491 34,000 98 Climbing Chicago Center
Sun 10:09:26 PM 42.4569 -86.1781 267° West 420 483 34,000  Level Chicago Center
Sun 10:10:27 PM 42.4353 -86.3386 260° West 431 496 34,000  Level Chicago Center
Sun 10:11:29 PM 42.4161 -86.4969 261° West 427 491 34,000  Level Chicago Center
Sun 10:12:30 PM 42.3933 -86.6769 260° West 430 495 34,000  Level Chicago Center
Sun 10:13:31 PM 42.3753 -86.8353 261° West 431 496 34,000 -49 Level Chicago Center
Sun 10:14:33 PM 42.3542 -86.9897 260° West 422 486 33,900 -49 Descending Chicago Center
Sun 10:15:34 PM 42.3319 -87.1431 259° West 418 481 33,900 49 Level Chicago Center
Sun 10:16:35 PM 42.3111 -87.3003 260° West 426 490 34,000 49 Climbing Chicago Center
Sun 10:17:36 PM 42.2897 -87.4572 260° West 428 493 34,000  Level Chicago Center
Sun 10:18:38 PM 42.2639 -87.6503 260° West 437 503 34,000  Level Chicago Center
Sun 10:19:39 PM 42.2417 -87.8083 259° West 434 499 34,000  Level Chicago Center
Sun 10:20:40 PM 42.2189 -87.9664 259° West 434 499 34,000  Level Chicago Center
Sun 10:21:42 PM 42.1906 -88.1244 256° West 437 503 34,000  Level Chicago Center
Sun 10:22:43 PM 42.1622 -88.2828 256° West 438 504 34,000  Level Chicago Center
Sun 10:23:44 PM 42.1347 -88.4397 257° West 437 503 34,000  Level Chicago Center
Sun 10:24:45 PM 42.1067 -88.5961 256° West 434 499 34,000  Level Chicago Center
Sun 10:25:46 PM 42.0725 -88.7833 256° West 435 501 34,000  Level Chicago Center
Sun 10:26:48 PM 42.0439 -88.9383 256° West 433 498 34,000  Level Chicago Center
Sun 10:27:49 PM 42.0156 -89.0944 256° West 435 501 34,000  Level Chicago Center
Sun 10:28:50 PM 41.9875 -89.2492 256° West 431 496 34,000  Level Chicago Center
Sun 10:29:51 PM 41.9583 -89.4033 256° West 431 496 34,000  Level Chicago Center
Sun 10:30:52 PM 41.9292 -89.5589 256° West 432 497 34,000  Level Chicago Center
Sun 10:31:54 PM 41.9000 -89.7114 256° West 428 493 34,000  Level Chicago Center
Sun 10:32:55 PM 41.8642 -89.8972 256° West 431 496 34,000  Level Chicago Center
Sun 10:33:56 PM 41.8350 -90.0533 256° West 436 502 34,000  Level Chicago Center
Sun 10:34:57 PM 41.8044 -90.2081 255° West 435 501 34,000  Level Chicago Center
Sun 10:35:58 PM 41.7756 -90.3558 255° West 430 495 34,000  Level Chicago Center
Sun 10:36:59 PM 41.7456 -90.5103 255° West 429 494 34,000  Level Chicago Center
Sun 10:38:01 PM 41.7128 -90.6692 255° West 431 496 34,000  Level Chicago Center
Sun 10:39:02 PM 41.6822 -90.8208 255° West 426 490 34,000  Level Chicago Center
Sun 10:40:03 PM 41.6517 -90.9742 255° West 428 493 34,000  Level Chicago Center
Sun 10:41:04 PM 41.6197 -91.1283 255° West 432 497 34,000  Level Chicago Center
Sun 10:42:05 PM 41.5822 -91.3117 255° West 429 494 34,000  Level Chicago Center
Sun 10:43:06 PM 41.5508 -91.4639 255° West 427 491 34,000  Level Chicago Center
Sun 10:44:07 PM 41.5194 -91.6147 255° West 425 489 34,000  Level Chicago Center
Sun 10:45:08 PM 41.4806 -91.7636 251° West 427 491 34,000  Level Chicago Center
Sun 10:46:09 PM 41.4411 -91.9086 250° West 423 487 34,000  Level Chicago Center
Sun 10:47:11 PM 41.4017 -92.0547 250° West 423 487 34,000  Level Chicago Center
Sun 10:48:12 PM 41.3631 -92.2019 251° West 422 486 34,000  Level Chicago Center
Sun 10:49:13 PM 41.3236 -92.3511 251° West 427 491 34,000  Level Chicago Center
Sun 10:50:14 PM 41.2753 -92.5267 250° West 426 490 34,000  Level Chicago Center
Sun 10:51:09 PM 41.2444 -92.6425 251° West 425 489 34,000  Level Minneapolis Center
Sun 10:52:10 PM 41.2044 -92.7889 250° West 425 489 34,000  Level Minneapolis Center
Sun 10:53:11 PM 41.1717 -92.9047 249° West 426 490 34,000  Level Minneapolis Center
Sun 10:54:13 PM 41.1158 -93.1083 250° West 425 489 34,000  Level Minneapolis Center
Sun 10:55:14 PM 41.0767 -93.2494 250° West 418 481 34,000  Level Minneapolis Center
Sun 10:56:15 PM 41.0356 -93.3956 250° West 424 488 34,000  Level Minneapolis Center
Sun 10:57:16 PM 40.9944 -93.5403 249° West 426 490 34,000  Level Minneapolis Center
Sun 10:58:17 PM 40.9525 -93.6853 249° West 427 491 34,000  Level Minneapolis Center
Sun 10:59:18 PM 40.9114 -93.8294 249° West 425 489 34,000  Level Minneapolis Center
Sun 11:00:19 PM 40.8797 -93.9439 250° West 423 487 34,000  Level Minneapolis Center
Sun 11:01:20 PM 40.8214 -94.1464 249° West 424 488 34,000  Level Minneapolis Center
Sun 11:02:21 PM 40.7781 -94.2911 248° West 425 489 34,000  Level Minneapolis Center
Sun 11:03:22 PM 40.7344 -94.4358 248° West 428 493 34,000  Level Minneapolis Center
Sun 11:04:24 PM 40.6922 -94.5756 248° West 429 494 34,000  Level Minneapolis Center
Sun 11:05:25 PM 40.6506 -94.7219 249° West 427 491 34,000  Level Minneapolis Center
Sun 11:06:26 PM 40.6075 -94.8681 249° West 427 491 34,000  Level Minneapolis Center
Sun 11:07:27 PM 40.5644 -95.0128 249° West 425 489 34,000  Level Minneapolis Center
Sun 11:08:28 PM 40.5139 -95.1839 249° West 421 484 34,000  Level Minneapolis Center
Sun 11:09:29 PM 40.4686 -95.3322 248° West 427 491 34,000  Level Minneapolis Center
Sun 11:10:30 PM 40.4256 -95.4772 249° West 427 491 34,000  Level Minneapolis Center
Sun 11:11:31 PM 40.3806 -95.6217 248° West 427 491 34,000  Level Minneapolis Center
Sun 11:12:32 PM 40.3375 -95.7653 249° West 424 488 34,000  Level Minneapolis Center
Sun 11:13:33 PM 40.3014 -95.8808 248° West 425 489 34,000  Level Minneapolis Center
Sun 11:14:34 PM 40.2483 -96.0503 248° West 420 483 34,000  Level Minneapolis Center
Sun 11:15:35 PM 40.2044 -96.1947 248° West 424 488 34,000  Level Minneapolis Center
Sun 11:17:37 PM 40.1378 -96.4944 254° West 427 491 34,000  Level Minneapolis Center
Sun 11:18:38 PM 40.1050 -96.6450 254° West 429 494 34,000  Level Minneapolis Center
Sun 11:19:39 PM 40.0728 -96.7964 255° West 429 494 34,000  Level Minneapolis Center
Sun 11:20:40 PM 40.0392 -96.9444 254° West 427 491 34,000 -49 Level Minneapolis Center
Sun 11:21:41 PM 40.0064 -97.0919 254° West 425 489 33,900 -49 Descending Minneapolis Center
Sun 11:22:42 PM 39.9739 -97.2378 254° West 420 483 33,900 49 Level Minneapolis Center
Sun 11:23:43 PM 39.9375 -97.3983 254° West 423 487 34,000 45 Climbing Minneapolis Center
Sun 11:24:55 PM 39.9042 -97.5489 254° West 428 493 34,000  Level Minneapolis Center
Sun 11:25:57 PM 39.8631 -97.7264 253° West 427 491 34,000  Level Minneapolis Center
Sun 11:27:22 PM 39.8233 -97.9022 254° West 424 488 34,000  Level Minneapolis Center
Sun 11:28:23 PM 39.7828 -98.0758 253° West 419 482 34,000  Level Minneapolis Center
Sun 11:29:24 PM 39.7483 -98.2222 253° West 421 484 34,000  Level Minneapolis Center
Sun 11:30:24 PM 39.7139 -98.3672 253° West 420 483 34,000  Level Minneapolis Center
Sun 11:31:25 PM 39.6797 -98.5122 253° West 419 482 34,000  Level Minneapolis Center
Sun 11:32:26 PM 39.6456 -98.6578 253° West 420 483 34,000  Level Minneapolis Center
Sun 11:33:27 PM 39.6097 -98.8042 252° West 423 487 34,000  Level Minneapolis Center
Sun 11:33:44 PM 39.5956 -98.8658 253° West 428 493 34,000  Level Denver Center
Sun 11:34:45 PM 39.5603 -99.0125 253° West 426 490 34,000  Level Denver Center
Sun 11:35:46 PM 39.5256 -99.1575 253° West 423 487 34,000  Level Denver Center
Sun 11:36:47 PM 39.4897 -99.2994 252° West 415 478 34,000  Level Denver Center
Sun 11:37:48 PM 39.4550 -99.4456 253° West 412 474 34,000  Level Denver Center
Sun 11:38:49 PM 39.4144 -99.6064 252° West 418 481 34,000  Level Denver Center
Sun 11:39:50 PM 39.3808 -99.7433 252° West 418 481 34,000  Level Denver Center
Sun 11:40:51 PM 39.3458 -99.8811 252° West 420 483 34,000  Level Denver Center
Sun 11:41:52 PM 39.3061 -100.0397 252° West 416 479 34,000  Level Denver Center
Sun 11:42:53 PM 39.2708 -100.1767 252° West 419 482 34,000  Level Denver Center
Sun 11:43:54 PM 39.2403 -100.3125 254° West 413 475 34,000  Level Denver Center
Sun 11:44:55 PM 39.2061 -100.4758 255° West 418 481 34,000  Level Denver Center
Sun 11:45:56 PM 39.1758 -100.6153 254° West 421 484 34,000  Level Denver Center
Sun 11:46:57 PM 39.1472 -100.7550 255° West 422 486 34,000  Level Denver Center
Sun 11:47:58 PM 39.1128 -100.9169 255° West 420 483 34,000  Level Denver Center
Sun 11:48:59 PM 39.0819 -101.0553 254° West 420 483 34,000  Level Denver Center
Sun 11:50:00 PM 39.0528 -101.1936 255° West 418 481 34,000 -49 Level Denver Center
Sun 11:51:02 PM 39.0167 -101.3519 254° West 416 479 33,900  Descending Denver Center
Sun 11:52:03 PM 38.9875 -101.4897 255° West 416 479 34,000 49 Climbing Denver Center
Sun 11:53:04 PM 38.9514 -101.6494 254° West 420 483 34,000  Level Denver Center
Sun 11:54:05 PM 38.9200 -101.7864 254° West 419 482 34,000  Level Denver Center
Sun 11:55:06 PM 38.8900 -101.9261 255° West 424 488 34,000  Level Denver Center
Sun 11:56:07 PM 38.8539 -102.0856 254° West 420 483 34,000  Level Denver Center
Sun 11:57:08 PM 38.8222 -102.2222 253° West 419 482 34,000  Level Denver Center
Sun 11:58:09 PM 38.7858 -102.3806 254° West 417 480 34,000  Level Denver Center
Sun 11:59:10 PM 38.7594 -102.4939 253° West 418 481 34,000  Level Denver Center
Mon 12:00:11 AM 38.7225 -102.6528 253° West 418 481 34,000  Level Denver Center
Mon 12:01:12 AM 38.6847 -102.8136 253° West 418 481 34,000  Level Denver Center
Mon 12:02:13 AM 38.6525 -102.9553 254° West 412 474 34,000  Level Denver Center
Mon 12:03:14 AM 38.6194 -103.0972 253° West 412 474 34,000  Level Denver Center
Mon 12:04:15 AM 38.5844 -103.2406 253° West 417 480 34,000  Level Denver Center
Mon 12:05:16 AM 38.5525 -103.3756 253° West 424 488 34,000  Level Denver Center
Mon 12:06:17 AM 38.5156 -103.5272 253° West 427 491 34,000  Level Denver Center
Mon 12:07:18 AM 38.4822 -103.6669 253° West 431 496 34,000  Level Denver Center
Mon 12:08:19 AM 38.4428 -103.8264 253° West 425 489 34,000  Level Denver Center
Mon 12:09:20 AM 38.4089 -103.9653 253° West 428 493 34,000  Level Denver Center
Mon 12:10:21 AM 38.3747 -104.1033 253° West 430 495 34,000  Level Denver Center
Mon 12:11:22 AM 38.3353 -104.2661 253° West 432 497 34,000  Level Denver Center
Mon 12:12:24 AM 38.3011 -104.4019 252° West 426 490 34,000  Level Denver Center
Mon 12:13:25 AM 38.2828 -104.5683 262° West 427 491 34,000  Level Denver Center
Mon 12:14:26 AM 38.2697 -104.7125 263° West 428 493 34,000  Level Denver Center
Mon 12:15:27 AM 38.2561 -104.8547 263° West 427 491 34,000  Level Denver Center
Mon 12:16:28 AM 38.2411 -105.0181 263° West 430 495 34,000  Level Denver Center
Mon 12:17:29 AM 38.2267 -105.1667 263° West 429 494 34,000 -45 Level Denver Center
Mon 12:18:42 AM 38.2144 -105.3078 264° West 423 487 33,900  Descending Denver Center
Mon 12:19:43 AM 38.1947 -105.4986 263° West 426 490 34,000 49 Climbing Denver Center
Mon 12:20:44 AM 38.1792 -105.6647 263° West 425 489 34,000  Level Denver Center
Mon 12:21:45 AM 38.1639 -105.8064 262° West 424 488 34,000  Level Denver Center
Mon 12:22:46 AM 38.1503 -105.9478 263° West 423 487 34,000  Level Denver Center
Mon 12:23:47 AM 38.1344 -106.1083 263° West 422 486 34,000 -49 Level Denver Center
Mon 12:24:48 AM 38.1186 -106.2567 262° West 420 483 33,900  Descending Denver Center
Mon 12:25:49 AM 38.1028 -106.4044 262° West 420 483 34,000 49 Climbing Denver Center
Mon 12:26:50 AM 38.0858 -106.5578 262° West 428 493 34,000  Level Denver Center
Mon 12:27:51 AM 38.0708 -106.7006 262° West 426 490 34,000  Level Denver Center
Mon 12:28:52 AM 38.0528 -106.8686 262° West 430 495 34,000  Level Denver Center
Mon 12:29:53 AM 38.0375 -107.0111 262° West 428 493 34,000  Level Denver Center
Mon 12:30:54 AM 38.0214 -107.1550 262° West 429 494 34,000  Level Denver Center
Mon 12:31:55 AM 38.0039 -107.3078 262° West 429 494 34,000  Level Denver Center
Mon 12:32:56 AM 37.9853 -107.4742 262° West 428 493 34,000 -49 Level Denver Center
Mon 12:33:57 AM 37.9686 -107.6169 262° West 429 494 33,900  Descending Denver Center
Mon 12:34:58 AM 37.9519 -107.7614 262° West 433 498 34,000 50 Climbing Denver Center
Mon 12:35:58 AM 37.9325 -107.9286 262° West 432 497 34,000  Level Denver Center
Mon 12:36:59 AM 37.9153 -108.0717 261° West 431 496 34,000  Level Denver Center
Mon 12:38:00 AM 37.8983 -108.2094 261° West 420 483 34,000  Level Denver Center
Mon 12:39:01 AM 37.8786 -108.3714 261° West 419 482 34,000  Level Denver Center
Mon 12:40:02 AM 37.8611 -108.5111 261° West 421 484 34,000  Level Denver Center
Mon 12:41:03 AM 37.8408 -108.6769 261° West 425 489 34,000  Level Denver Center
Mon 12:42:04 AM 37.8228 -108.8186 261° West 428 493 34,000  Level Denver Center
Mon 12:43:05 AM 37.8025 -108.9561 259° West 420 483 34,000  Level Denver Center
Mon 12:44:06 AM 37.7631 -109.1150 253° West 425 489 34,000  Level Denver Center
Mon 12:45:06 AM 37.7297 -109.2483 252° West 420 483 34,000  Level Denver Center
Mon 12:46:07 AM 37.6967 -109.3828 253° West 420 483 34,000  Level Denver Center
Mon 12:47:08 AM 37.6572 -109.5400 252° West 422 486 34,000  Level Denver Center
Mon 12:48:09 AM 37.6233 -109.6744 252° West 423 487 34,000  Level Denver Center
Mon 12:49:10 AM 37.5889 -109.8089 252° West 423 487 34,000  Level Denver Center
Mon 12:50:10 AM 37.5486 -109.9672 252° West 425 489 34,000  Level Denver Center
Mon 12:51:11 AM 37.5147 -110.1019 252° West 424 488 34,000  Level Denver Center
Mon 12:52:12 AM 37.4758 -110.2503 252° West 425 489 34,000  Level Denver Center
Mon 12:53:12 AM 37.4386 -110.3931 252° West 428 493 34,000  Level Denver Center
Mon 12:54:13 AM 37.4033 -110.5342 253° West 425 489 34,000  Level Denver Center
Mon 12:55:14 AM 37.3650 -110.6775 251° West 431 496 34,000  Level Denver Center
Mon 12:56:14 AM 37.3264 -110.8203 251° West 431 496 34,000  Level Denver Center
Mon 12:57:15 AM 37.2894 -110.9600 252° West 425 489 34,000 -49 Level Denver Center
Mon 12:58:16 AM 37.2519 -111.1011 252° West 426 490 33,900 -99 Descending Denver Center
Mon 12:59:16 AM 37.2128 -111.2428 251° West 429 494 33,800 -496 Descending Denver Center
Mon 01:00:17 AM 37.1750 -111.3844 252° West 428 493 32,900 -893 Descending Denver Center
Mon 01:01:17 AM 37.1369 -111.5283 252° West 433 498 32,000 -446 Descending Denver Center
Mon 01:02:18 AM 37.0978 -111.6711 251° West 433 498 32,000  Level Denver Center
Mon 01:03:19 AM 37.0578 -111.8161 251° West 438 504 32,000  Level Denver Center
Mon 01:04:19 AM 37.0175 -111.9606 251° West 438 504 32,000  Level Denver Center
Mon 01:05:20 AM 36.9836 -112.1081 254° West 441 507 32,000  Level Denver Center
Mon 01:05:45 AM 36.9717 -112.1669 256° West 439 505 32,000  Level Los Angeles Center
Mon 01:06:46 AM 36.9361 -112.3456 256° West 439 505 32,000  Level Los Angeles Center
Mon 01:07:48 AM 36.9058 -112.4931 256° West 438 504 32,000  Level Los Angeles Center
Mon 01:08:49 AM 36.8767 -112.6422 256° West 439 505 32,000  Level Los Angeles Center
Mon 01:09:50 AM 36.8472 -112.7900 256° West 439 505 32,000  Level Los Angeles Center
Mon 01:10:52 AM 36.8164 -112.9381 255° West 439 505 32,000  Level Los Angeles Center
Mon 01:12:05 AM 36.7853 -113.0869 255° West 441 507 32,000 -44 Level Los Angeles Center
Mon 01:13:07 AM 36.7483 -113.2656 256° West 442 509 31,900 -927 Descending Los Angeles Center
Mon 01:14:08 AM 36.7161 -113.4144 255° West 443 510 30,100 -1,869 Descending Los Angeles Center
Mon 01:15:09 AM 36.6853 -113.5675 256° West 451 519 28,100 -2,000 Descending Los Angeles Center
Mon 01:16:11 AM 36.6542 -113.7169 255° West 448 516 26,000 -2,195 Descending Los Angeles Center
Mon 01:17:12 AM 36.6228 -113.8603 255° West 434 499 23,600 -2,705 Descending Los Angeles Center
Mon 01:18:13 AM 36.5883 -114.0247 255° West 414 476 20,500 -2,642 Descending Los Angeles Center
Mon 01:19:26 AM 36.5436 -114.1475 246° West 398 458 17,700 -2,743 Descending Los Angeles Center
Mon 01:19:58 AM 36.5075 -114.2428 245° Southwest 409 471 15,700 -2,613 Descending Los Angeles Center
Mon 01:20:28 AM 36.4872 -114.2742 231° Southwest 391 450 15,000 -2,400 Descending Los Angeles Center
Mon 01:20:53 AM 36.4619 -114.3389 244° Southwest 382 440 13,500 -2,164 Descending Los Angeles Center
Mon 01:21:29 AM 36.4364 -114.3881 237° Southwest 381 438 12,800 -1,254 Descending Los Angeles Center
Mon 01:22:00 AM 36.4053 -114.4628 243° Southwest 345 397 12,100 -787 Descending Los Angeles Center
Mon 01:22:30 AM 36.3647 -114.4869 206° Southwest 340 391 12,000 -218 Descending Los Angeles Center
Mon 01:22:55 AM 36.3311 -114.4989 196° South 316 364 11,900  Descending Los Angeles Center
Mon 01:23:31 AM 36.2789 -114.5097 189° South 318 366 12,000 -393 Climbing Los Angeles Center
Mon 01:23:56 AM 36.2503 -114.5342 215° Southwest 316 364 11,500 -1,355 Descending Los Angeles Center
Mon 01:24:33 AM 36.2111 -114.5747 220° Southwest 312 359 10,600 -1,556 Descending Los Angeles Center
Mon 01:24:50 AM 36.1911 -114.5994 225° Southwest 306 352 10,100 -1,180 Descending Los Angeles Center
Mon 01:25:34 AM 36.1492 -114.6433 220° Southwest 302 348 9,400 -1,082 Descending Los Angeles Center
Mon 01:25:51 AM 36.1300 -114.6656 223° Southwest 291 335 9,000 -689 Descending Los Angeles Center
Mon 01:26:35 AM 36.0928 -114.7044 220° Southwest 284 327 8,700 -689 Descending Los Angeles Center
Mon 01:26:52 AM 36.0781 -114.7231 226° Southwest 250 288 8,300 -984 Descending Los Angeles Center
Mon 01:27:36 AM 36.0742 -114.7758 265° West 246 283 7,700 -1,180 Descending Los Angeles Center
Mon 01:27:53 AM 36.0736 -114.8017 268° West 238 274 7,100 -1,082 Descending Los Angeles Center
Mon 01:28:37 AM 36.0736 -114.8544 270° West 235 270 6,600 -700 Descending Los Angeles Center
Mon 01:28:53 AM 36.0744 -114.8839 272° West 215 247 6,400 -1,082 Descending Los Angeles Center
Mon 01:29:38 AM 36.0739 -114.9217 269° West 218 251 5,500 -1,574 Descending Los Angeles Center
Mon 01:29:54 AM 36.0750 -114.9450 273° West 180 207 4,800 -1,180 Descending Los Angeles Center
Mon 01:30:39 AM 36.0733 -114.9797 267° West 192 221 4,300 -885 Descending Los Angeles Center
Mon 01:30:55 AM 36.0728 -115.0044 268° West 172 198 3,900 -1,500 Descending Los Angeles Center

Login

Don't have an account? Register now (free) for customized features, flight alerts, and more!